createdAt,value
2023-01-29T00:01:28.134Z,100134.88
2023-01-29T00:03:56.924Z,100120.75
2023-01-29T00:06:25.773Z,100118.81
2023-01-29T00:08:55.873Z,100116.59
2023-01-29T00:11:25.629Z,100109.53
2023-01-29T00:13:54.864Z,100109.09
2023-01-29T00:16:23.487Z,100094.53
2023-01-29T00:18:52.333Z,100102.59
2023-01-29T00:21:23.522Z,100106.88
2023-01-29T00:23:52.718Z,100096.50
2023-01-29T00:26:22.890Z,100099.97
2023-01-29T00:28:52.411Z,100096.34
2023-01-29T00:31:23.614Z,100094.53
2023-01-29T00:33:52.880Z,100091.22
2023-01-29T00:36:23.505Z,100079.31
2023-01-29T00:38:58.771Z,100074.47
2023-01-29T00:41:50.283Z,100067.25
2023-01-29T00:44:37.845Z,100077.81
2023-01-29T00:47:28.179Z,100075.59
2023-01-29T00:49:56.975Z,100073.94
2023-01-29T00:52:25.830Z,100064.75
2023-01-29T00:54:55.732Z,100069.75
2023-01-29T00:57:28.583Z,100074.75
2023-01-29T00:59:57.528Z,100076.28
2023-01-29T01:02:44.748Z,100070.88
2023-01-29T01:05:18.981Z,100075.72
2023-01-29T01:07:49.731Z,100088.88
2023-01-29T01:10:24.387Z,100084.88
2023-01-29T01:12:58.337Z,100088.31
2023-01-29T01:15:30.545Z,100089.88
2023-01-29T01:18:02.793Z,100100.53
2023-01-29T01:20:35.474Z,100096.94
2023-01-29T01:23:05.309Z,100094.00
2023-01-29T01:25:34.365Z,100087.78
2023-01-29T01:28:04.478Z,100076.13
2023-01-29T01:30:34.251Z,100071.69
2023-01-29T01:33:03.148Z,100071.56
2023-01-29T01:35:32.466Z,100069.91
2023-01-29T01:38:01.219Z,100071.56
2023-01-29T01:40:29.923Z,100068.22
2023-01-29T01:43:01.542Z,100072.09
2023-01-29T01:45:33.866Z,100073.09
2023-01-29T01:48:08.830Z,100061.44
2023-01-29T01:50:44.469Z,100055.63
2023-01-29T01:53:20.111Z,100050.06
2023-01-29T01:55:55.400Z,100056.03
2023-01-29T01:58:32.007Z,100053.41
2023-01-29T02:01:02.780Z,100060.06
2023-01-29T02:03:54.321Z,100061.72
2023-01-29T02:06:40.571Z,100066.16
2023-01-29T02:09:33.565Z,100066.97
2023-01-29T02:12:03.726Z,100060.88
2023-01-29T02:14:34.589Z,100049.53
2023-01-29T02:17:04.835Z,100044.25
2023-01-29T02:19:49.217Z,100040.09
2023-01-29T02:22:43.190Z,100046.47
2023-01-29T02:25:49.565Z,100046.75
2023-01-29T02:28:33.174Z,100041.78
2023-01-29T02:31:13.916Z,100035.41
2023-01-29T02:33:56.532Z,100041.38
2023-01-29T02:36:36.080Z,100048.97
2023-01-29T02:39:18.696Z,100044.28
2023-01-29T02:42:00.021Z,100035.38
2023-01-29T02:44:39.775Z,100033.19
2023-01-29T02:47:20.093Z,100033.47
2023-01-29T02:49:59.183Z,100047.56
2023-01-29T02:52:37.821Z,100048.91
2023-01-29T02:55:15.108Z,100048.63
2023-01-29T02:57:49.044Z,100055.81
2023-01-29T03:00:25.754Z,100057.78
2023-01-29T03:03:04.053Z,100059.09
2023-01-29T03:05:43.534Z,100053.84
2023-01-29T03:08:25.200Z,100058.25
2023-01-29T03:11:03.817Z,100063.16
2023-01-29T03:13:42.308Z,100067.06
2023-01-29T03:16:23.725Z,100050.22
2023-01-29T03:19:00.241Z,100059.47
2023-01-29T03:22:00.323Z,100058.81
2023-01-29T03:24:59.119Z,100055.91
2023-01-29T03:27:55.102Z,100060.75
2023-01-29T03:30:45.980Z,100047.06
2023-01-29T03:33:37.056Z,100044.44
2023-01-29T03:36:14.436Z,100048.28
2023-01-29T03:38:43.605Z,100052.78
2023-01-29T03:41:26.445Z,100057.28
2023-01-29T03:44:11.419Z,100057.47
2023-01-29T03:46:51.841Z,100059.56
2023-01-29T03:49:34.280Z,100048.75
2023-01-29T03:52:17.424Z,100051.16
2023-01-29T03:55:02.138Z,100047.41
2023-01-29T03:57:41.808Z,100044.91
2023-01-29T04:00:21.337Z,100041.00
2023-01-29T04:03:10.952Z,100051.50
2023-01-29T04:05:51.226Z,100051.66
2023-01-29T04:08:31.964Z,100055.94
2023-01-29T04:11:12.702Z,100048.34
2023-01-29T04:13:42.159Z,100041.59
2023-01-29T04:16:19.005Z,100036.53
2023-01-29T04:19:16.913Z,100031.78
2023-01-29T04:21:53.098Z,100028.19
2023-01-29T04:24:23.261Z,100017.44
2023-01-29T04:27:08.324Z,100008.53
2023-01-29T04:30:08.913Z,100005.28
2023-01-29T04:32:58.950Z,100006.72
2023-01-29T04:35:40.271Z,100004.38
2023-01-29T04:38:21.919Z,99995.53
2023-01-29T04:41:04.181Z,99991.69
2023-01-29T04:43:43.622Z,99988.19
2023-01-29T04:46:19.692Z,99989.84
2023-01-29T04:49:08.118Z,99982.31
2023-01-29T04:51:50.823Z,99986.09
2023-01-29T04:54:36.349Z,99972.44
2023-01-29T04:57:15.770Z,99965.13
2023-01-29T04:59:49.826Z,99963.06
2023-01-29T05:02:24.270Z,99956.53
2023-01-29T05:04:56.254Z,99957.34
2023-01-29T05:07:27.567Z,99946.00
2023-01-29T05:09:58.390Z,99936.81
2023-01-29T05:12:31.569Z,99932.44
2023-01-29T05:15:05.303Z,99929.41
2023-01-29T05:17:34.078Z,99927.22
2023-01-29T05:20:02.855Z,99934.78
2023-01-29T05:22:32.251Z,99938.47
2023-01-29T05:25:03.334Z,99939.03
2023-01-29T05:27:54.385Z,99934.63
2023-01-29T05:30:22.996Z,99924.41
2023-01-29T05:32:51.667Z,99922.59
2023-01-29T05:35:20.376Z,99927.13
2023-01-29T05:37:50.111Z,99930.78
2023-01-29T05:40:20.505Z,99935.59
2023-01-29T05:42:49.201Z,99935.41
2023-01-29T05:45:18.156Z,99939.63
2023-01-29T05:47:46.939Z,99937.09
2023-01-29T05:50:16.996Z,99932.56
2023-01-29T05:52:45.904Z,99929.38
2023-01-29T05:55:15.804Z,99927.19
2023-01-29T05:57:45.942Z,99925.25
2023-01-29T06:00:16.800Z,99918.72
2023-01-29T06:02:46.413Z,99925.16
2023-01-29T06:05:15.481Z,99925.34
2023-01-29T06:07:46.262Z,99941.22
2023-01-29T06:10:17.321Z,99943.03
2023-01-29T06:12:48.035Z,99940.16
2023-01-29T06:15:17.039Z,99933.50
2023-01-29T06:17:45.728Z,99923.50
2023-01-29T06:20:15.902Z,99928.63
2023-01-29T06:22:44.751Z,99942.53
2023-01-29T06:25:42.300Z,99951.03
2023-01-29T06:28:12.420Z,99956.28
2023-01-29T06:30:42.489Z,99960.78
2023-01-29T06:33:11.473Z,99974.06
2023-01-29T06:35:40.138Z,99975.09
2023-01-29T06:38:11.015Z,99977.22
2023-01-29T06:40:41.420Z,99977.75
2023-01-29T06:43:11.907Z,99975.59
2023-01-29T06:45:47.165Z,99967.03
2023-01-29T06:48:15.830Z,99964.59
2023-01-29T06:50:45.140Z,99976.16
2023-01-29T06:53:14.434Z,99973.75
2023-01-29T06:55:43.277Z,99988.00
2023-01-29T06:58:13.963Z,100009.19
2023-01-29T07:00:42.926Z,100019.03
2023-01-29T07:06:29.289Z,100022.91
2023-01-29T07:08:58.612Z,100026.38
2023-01-29T07:11:27.426Z,100025.56
2023-01-29T07:13:57.577Z,100032.16
2023-01-29T07:16:26.635Z,100023.34
2023-01-29T07:18:55.418Z,100032.22
2023-01-29T07:21:24.193Z,100038.88
2023-01-29T07:23:56.257Z,100034.16
2023-01-29T07:26:25.079Z,100028.13
2023-01-29T07:28:56.176Z,100033.09
2023-01-29T07:31:24.866Z,100033.19
2023-01-29T07:33:53.595Z,100026.72
2023-01-29T07:36:22.287Z,100030.34
2023-01-29T07:38:51.793Z,100021.47
2023-01-29T07:41:20.873Z,100025.06
2023-01-29T07:43:49.820Z,100009.44
2023-01-29T07:46:19.987Z,100004.31
2023-01-29T07:48:48.598Z,100003.78
2023-01-29T07:51:18.590Z,100004.63
2023-01-29T07:53:48.356Z,100005.34
2023-01-29T07:56:17.027Z,100010.47
2023-01-29T07:58:45.960Z,100001.19
2023-01-29T08:01:14.986Z,100005.88
2023-01-29T08:03:45.260Z,100007.00
2023-01-29T08:06:14.154Z,99990.22
2023-01-29T08:08:42.919Z,99975.84
2023-01-29T08:11:11.732Z,99981.25
2023-01-29T08:13:40.434Z,99983.19
2023-01-29T08:16:10.599Z,99968.25
2023-01-29T08:18:42.551Z,99968.66
2023-01-29T08:21:13.904Z,99959.25
2023-01-29T08:23:42.776Z,99958.53
2023-01-29T08:26:11.491Z,99953.69
2023-01-29T08:28:40.195Z,99938.72
2023-01-29T08:31:16.300Z,99947.56
2023-01-29T08:33:45.254Z,99941.19
2023-01-29T08:36:15.530Z,99946.47
2023-01-29T08:38:45.465Z,99952.00
2023-01-29T08:41:14.388Z,99955.34
2023-01-29T08:43:43.116Z,99953.94
2023-01-29T08:46:12.268Z,99949.78
2023-01-29T08:48:41.868Z,99943.69
2023-01-29T08:51:11.067Z,99956.69
2023-01-29T08:53:41.506Z,99958.91
2023-01-29T08:56:10.354Z,99962.22
2023-01-29T08:58:39.030Z,99962.94
2023-01-29T09:01:09.364Z,99967.94
2023-01-29T09:03:41.061Z,99976.41
2023-01-29T09:06:11.706Z,99964.19
2023-01-29T09:08:42.319Z,99970.56
2023-01-29T09:11:11.325Z,99968.72
2023-01-29T09:13:40.070Z,99946.56
2023-01-29T09:16:09.359Z,99937.00
2023-01-29T09:18:38.468Z,99931.69
2023-01-29T09:21:07.497Z,99943.03
2023-01-29T09:23:36.417Z,99945.03
2023-01-29T09:26:08.701Z,99943.63
2023-01-29T09:28:37.499Z,99945.00
2023-01-29T09:31:06.569Z,99942.47
2023-01-29T09:33:35.362Z,99914.97
2023-01-29T09:36:05.197Z,99916.91
2023-01-29T09:38:33.863Z,99921.31
2023-01-29T09:41:23.835Z,99927.41
2023-01-29T09:43:59.165Z,99940.28
2023-01-29T09:46:37.483Z,99932.25
2023-01-29T09:49:16.515Z,99930.00
2023-01-29T09:51:52.572Z,99923.06
2023-01-29T09:54:32.263Z,99923.06
2023-01-29T09:57:03.111Z,99913.78
2023-01-29T09:59:33.436Z,99910.13
2023-01-29T10:02:19.432Z,99898.00
2023-01-29T10:05:10.692Z,99882.94
2023-01-29T10:08:17.836Z,99879.34
2023-01-29T10:10:52.628Z,99879.91
2023-01-29T10:13:38.757Z,99886.84
2023-01-29T10:16:38.722Z,99879.34
2023-01-29T10:19:48.885Z,99884.28
2023-01-29T10:22:59.388Z,99884.13
2023-01-29T10:25:28.437Z,99892.31
2023-01-29T10:28:00.935Z,99882.81
2023-01-29T10:30:38.207Z,99881.91
2023-01-29T10:33:13.643Z,99889.16
2023-01-29T10:35:45.737Z,99878.78
2023-01-29T10:38:30.385Z,99887.72
2023-01-29T10:41:16.222Z,99893.59
2023-01-29T10:44:06.240Z,99886.34
2023-01-29T10:46:58.986Z,99877.84
2023-01-29T10:49:52.403Z,99875.00
2023-01-29T10:52:43.172Z,99880.31
2023-01-29T10:55:36.859Z,99874.53
2023-01-29T10:58:20.550Z,99859.38
2023-01-29T11:00:53.847Z,99858.09
2023-01-29T11:03:29.528Z,99850.66
2023-01-29T11:06:14.171Z,99846.94
2023-01-29T11:08:53.928Z,99837.13
2023-01-29T11:11:32.801Z,99835.16
2023-01-29T11:14:07.817Z,99833.81
2023-01-29T11:16:44.414Z,99825.28
2023-01-29T11:19:15.284Z,99819.50
2023-01-29T11:21:58.719Z,99815.38
2023-01-29T11:24:28.887Z,99807.78
2023-01-29T11:27:01.011Z,99800.78
2023-01-29T11:29:38.484Z,99793.25
2023-01-29T11:32:13.867Z,99790.34
2023-01-29T11:35:02.370Z,99780.81
2023-01-29T11:37:39.139Z,99781.88
2023-01-29T11:40:41.342Z,99767.91
2023-01-29T11:43:21.209Z,99760.97
2023-01-29T11:45:53.454Z,99756.56
2023-01-29T11:48:28.748Z,99754.63
2023-01-29T11:51:03.479Z,99753.00
2023-01-29T11:53:41.916Z,99760.38
2023-01-29T11:56:28.327Z,99768.66
2023-01-29T11:58:59.928Z,99772.94
2023-01-29T12:01:38.134Z,99769.47
2023-01-29T12:04:22.651Z,99756.44
2023-01-29T12:06:55.877Z,99758.63
2023-01-29T12:09:28.511Z,99744.78
2023-01-29T12:12:17.489Z,99733.75
2023-01-29T12:14:46.483Z,99732.63
2023-01-29T12:17:24.103Z,99745.13
2023-01-29T12:20:00.873Z,99742.47
2023-01-29T12:22:47.265Z,99730.63
2023-01-29T12:25:25.403Z,99722.03
2023-01-29T12:28:05.828Z,99710.47
2023-01-29T12:30:50.857Z,99713.94
2023-01-29T12:33:36.151Z,99708.53
2023-01-29T12:36:14.502Z,99692.31
2023-01-29T12:38:46.744Z,99681.75
2023-01-29T12:41:40.789Z,99686.69
2023-01-29T12:44:20.474Z,99687.53
2023-01-29T12:46:54.466Z,99692.00
2023-01-29T12:49:31.077Z,99693.50
2023-01-29T12:52:17.300Z,99689.66
2023-01-29T12:54:54.933Z,99686.88
2023-01-29T12:57:33.737Z,99701.56
2023-01-29T13:00:11.192Z,99691.63
2023-01-29T13:02:51.069Z,99688.00
2023-01-29T13:05:28.543Z,99690.69
2023-01-29T13:08:06.443Z,99690.34
2023-01-29T13:10:44.371Z,99690.69
2023-01-29T13:13:25.823Z,99682.91
2023-01-29T13:15:57.298Z,99685.38
2023-01-29T13:18:46.297Z,99674.47
2023-01-29T13:21:21.360Z,99664.56
2023-01-29T13:23:55.173Z,99661.13
2023-01-29T13:26:27.285Z,99664.41
2023-01-29T13:28:56.565Z,99662.25
2023-01-29T13:31:33.038Z,99653.34
2023-01-29T13:34:15.079Z,99654.66
2023-01-29T13:36:46.930Z,99657.63
2023-01-29T13:39:27.089Z,99660.59
2023-01-29T13:41:59.925Z,99652.84
2023-01-29T13:44:33.893Z,99655.66
2023-01-29T13:47:06.954Z,99664.22
2023-01-29T13:49:41.045Z,99660.28
2023-01-29T13:52:39.893Z,99675.16
2023-01-29T13:55:23.983Z,99674.13
2023-01-29T13:57:56.859Z,99681.78
2023-01-29T14:01:02.586Z,99676.97
2023-01-29T14:04:04.773Z,99662.59
2023-01-29T14:06:51.011Z,99659.94
2023-01-29T14:10:03.325Z,99648.88
2023-01-29T14:12:41.112Z,99642.09
2023-01-29T14:15:25.813Z,99650.03
2023-01-29T14:18:28.663Z,99645.75
2023-01-29T14:21:07.001Z,99651.84
2023-01-29T14:23:42.866Z,99655.66
2023-01-29T14:26:28.493Z,99653.81
2023-01-29T14:29:32.631Z,99653.31
2023-01-29T14:32:20.506Z,99645.72
2023-01-29T14:34:52.135Z,99630.53
2023-01-29T14:37:34.248Z,99633.19
2023-01-29T14:40:22.871Z,99634.16
2023-01-29T14:43:01.590Z,99637.97
2023-01-29T14:45:53.343Z,99638.78
2023-01-29T14:48:39.950Z,99647.38
2023-01-29T14:51:12.217Z,99652.00
2023-01-29T14:53:59.665Z,99656.66
2023-01-29T14:56:35.768Z,99664.06
2023-01-29T14:59:20.920Z,99660.28
2023-01-29T15:01:55.990Z,99661.91
2023-01-29T15:04:34.720Z,99662.56
2023-01-29T15:07:12.441Z,99661.56
2023-01-29T15:09:49.187Z,99653.66
2023-01-29T15:12:29.106Z,99656.59
2023-01-29T15:15:09.884Z,99659.59
2023-01-29T15:17:50.782Z,99662.06
2023-01-29T15:20:33.827Z,99669.81
2023-01-29T15:23:05.000Z,99664.19
2023-01-29T15:25:47.770Z,99649.97
2023-01-29T15:28:17.649Z,99650.78
2023-01-29T15:30:46.988Z,99637.72
2023-01-29T15:33:16.479Z,99641.41
2023-01-29T15:36:07.365Z,99630.44
2023-01-29T15:38:40.227Z,99635.09
2023-01-29T15:41:21.683Z,99640.53
2023-01-29T15:43:57.967Z,99636.59
2023-01-29T15:46:31.527Z,99632.13
2023-01-29T15:49:08.600Z,99633.94
2023-01-29T15:51:40.114Z,99630.44
2023-01-29T15:54:18.806Z,99624.53
2023-01-29T15:56:53.099Z,99618.59
2023-01-29T15:59:27.194Z,99625.16
2023-01-29T16:01:56.495Z,99630.78
2023-01-29T16:04:31.182Z,99616.06
2023-01-29T16:07:04.367Z,99616.75
2023-01-29T16:09:33.425Z,99618.59
2023-01-29T16:12:02.967Z,99617.25
2023-01-29T16:14:33.447Z,99615.44
2023-01-29T16:17:25.682Z,99618.53
2023-01-29T16:19:58.868Z,99608.31
2023-01-29T16:22:34.476Z,99618.56
2023-01-29T16:25:09.855Z,99605.84
2023-01-29T16:27:38.904Z,99608.97
2023-01-29T16:30:09.431Z,99605.69
2023-01-29T16:32:38.623Z,99610.94
2023-01-29T16:35:08.920Z,99606.69
2023-01-29T16:37:39.136Z,99605.34
2023-01-29T16:40:26.700Z,99599.69
2023-01-29T16:43:42.476Z,99594.47
2023-01-29T16:46:24.680Z,99589.50
2023-01-29T16:48:54.929Z,99590.19
2023-01-29T16:51:28.523Z,99585.38
2023-01-29T16:54:09.025Z,99586.84
2023-01-29T16:56:40.997Z,99587.84
2023-01-29T16:59:23.065Z,99580.91
2023-01-29T17:01:53.996Z,99580.75
2023-01-29T17:04:23.705Z,99578.94
2023-01-29T17:06:58.369Z,99574.63
2023-01-29T17:14:53.757Z,99574.47
2023-01-29T17:17:22.629Z,99573.00
2023-01-29T17:19:53.944Z,99579.97
2023-01-29T17:22:24.410Z,99578.97
2023-01-29T17:24:55.043Z,99577.81
2023-01-29T17:27:24.949Z,99569.88
2023-01-29T17:29:54.245Z,99574.16
2023-01-29T17:32:23.164Z,99568.72
2023-01-29T17:34:53.196Z,99574.16
2023-01-29T17:37:22.016Z,99569.72
2023-01-29T17:39:52.702Z,99573.69
2023-01-29T17:42:22.976Z,99572.53
2023-01-29T17:44:52.103Z,99576.97
2023-01-29T17:47:21.327Z,99571.34
2023-01-29T17:49:51.598Z,99577.97
2023-01-29T17:52:20.988Z,99583.44
2023-01-29T17:54:50.161Z,99575.34
2023-01-29T17:57:19.428Z,99570.53
2023-01-29T17:59:50.218Z,99567.25
2023-01-29T18:02:29.532Z,99567.91
2023-01-29T18:04:59.069Z,99569.53
2023-01-29T18:07:27.932Z,99569.06
2023-01-29T18:09:56.748Z,99567.25
2023-01-29T18:12:27.089Z,99550.59
2023-01-29T18:14:57.347Z,99552.53
2023-01-29T18:17:26.900Z,99547.09
2023-01-29T18:19:58.476Z,99545.78
2023-01-29T18:22:31.794Z,99545.44
2023-01-29T18:25:02.534Z,99545.13
2023-01-29T18:27:43.306Z,99545.44
2023-01-29T18:30:16.681Z,99544.63
2023-01-29T18:32:48.616Z,99542.63
2023-01-29T18:35:21.631Z,99536.22
2023-01-29T18:37:51.674Z,99533.41
2023-01-29T18:40:21.001Z,99525.31
2023-01-29T18:42:50.293Z,99525.81
2023-01-29T18:45:22.176Z,99523.50
2023-01-29T18:47:51.653Z,99518.69
2023-01-29T18:50:23.689Z,99519.50
2023-01-29T18:52:53.226Z,99515.53
2023-01-29T18:55:23.913Z,99507.78
2023-01-29T18:58:26.049Z,99501.88
2023-01-29T19:00:45.161Z,99499.06
2023-01-29T19:03:14.187Z,99496.06
2023-01-29T19:05:43.919Z,99486.69
2023-01-29T19:08:13.456Z,99486.69
2023-01-29T19:10:42.894Z,99475.66
2023-01-29T19:13:12.979Z,99470.19
2023-01-29T19:15:47.409Z,99464.41
2023-01-29T19:18:17.107Z,99463.06
2023-01-29T19:20:46.255Z,99460.78
2023-01-29T19:23:15.963Z,99463.41
2023-01-29T19:25:46.048Z,99455.50
2023-01-29T19:28:16.351Z,99456.50
2023-01-29T19:30:47.143Z,99457.63
2023-01-29T19:33:16.498Z,99448.22
2023-01-29T19:35:46.685Z,99451.22
2023-01-29T19:38:21.297Z,99442.97
2023-01-29T19:40:50.511Z,99438.63
2023-01-29T19:43:20.122Z,99431.06
2023-01-29T19:45:51.216Z,99436.16
2023-01-29T19:48:23.665Z,99432.38
2023-01-29T19:50:58.483Z,99427.25
2023-01-29T19:53:30.379Z,99429.38
2023-01-29T19:56:04.766Z,99427.25
2023-01-29T19:58:35.822Z,99430.03
2023-01-29T20:01:13.879Z,99421.81
2023-01-29T20:03:43.413Z,99427.72
2023-01-29T20:06:12.834Z,99425.91
2023-01-29T20:08:45.771Z,99418.13
2023-01-29T20:11:19.077Z,99418.75
2023-01-29T20:13:51.343Z,99420.41
2023-01-29T20:16:23.364Z,99422.03
2023-01-29T20:18:52.833Z,99425.00
2023-01-29T20:21:23.380Z,99421.03
2023-01-29T20:23:53.400Z,99417.75
2023-01-29T20:26:22.839Z,99418.38
2023-01-29T20:28:52.491Z,99416.22
2023-01-29T20:31:23.137Z,99411.13
2023-01-29T20:33:51.961Z,99412.03
2023-01-29T20:36:21.233Z,99396.66
2023-01-29T20:38:50.193Z,99395.38
2023-01-29T20:41:21.315Z,99390.13
2023-01-29T20:43:51.086Z,99400.13
2023-01-29T20:46:21.797Z,99386.97
2023-01-29T20:48:53.276Z,99389.31
2023-01-29T20:51:22.352Z,99385.16
2023-01-29T20:53:51.280Z,99381.56
2023-01-29T20:56:32.210Z,99382.19
2023-01-29T20:59:05.457Z,99374.44
2023-01-29T21:01:35.607Z,99369.16
2023-01-29T21:04:04.691Z,99363.06
2023-01-29T21:06:33.802Z,99361.06
2023-01-29T21:09:05.054Z,99355.16
2023-01-29T21:11:34.603Z,99347.78
2023-01-29T21:14:03.437Z,99346.59
2023-01-29T21:16:34.221Z,99336.06
2023-01-29T21:19:06.331Z,99334.59
2023-01-29T21:21:35.580Z,99324.91
2023-01-29T21:24:04.783Z,99323.03
2023-01-29T21:26:33.607Z,99309.84
2023-01-29T21:29:02.796Z,99291.13
2023-01-29T21:31:31.529Z,99296.69
2023-01-29T21:34:01.661Z,99300.31
2023-01-29T21:36:30.504Z,99308.47
2023-01-29T21:38:59.476Z,99297.50
2023-01-29T21:41:42.223Z,99299.31
2023-01-29T21:44:11.385Z,99301.28
2023-01-29T21:46:40.337Z,99302.59
2023-01-29T21:49:10.550Z,99292.75
2023-01-29T21:51:40.800Z,99284.84
2023-01-29T21:54:10.049Z,99279.59
2023-01-29T21:56:39.065Z,99276.28
2023-01-29T21:59:08.314Z,99273.69
2023-01-29T22:01:38.889Z,99276.31
2023-01-29T22:04:09.836Z,99261.31
2023-01-29T22:06:38.744Z,99246.69
2023-01-29T22:09:07.943Z,99239.13
2023-01-29T22:11:36.915Z,99241.44
2023-01-29T22:14:05.658Z,99241.75
2023-01-29T22:16:34.480Z,99239.31
2023-01-29T22:19:03.133Z,99237.19
2023-01-29T22:21:35.711Z,99226.97
2023-01-29T22:24:05.520Z,99218.75
2023-01-29T22:26:34.281Z,99208.50
2023-01-29T22:29:03.033Z,99201.59
2023-01-29T22:31:31.766Z,99191.25
2023-01-29T22:34:00.431Z,99189.78
2023-01-29T22:36:29.157Z,99180.56
2023-01-29T22:38:59.371Z,99174.13
2023-01-29T22:41:28.474Z,99173.47
2023-01-29T22:43:57.315Z,99176.28
2023-01-29T22:46:26.237Z,99177.56
2023-01-29T22:48:56.639Z,99171.97
2023-01-29T22:51:25.626Z,99167.03
2023-01-29T22:53:57.162Z,99164.75
2023-01-29T22:56:32.455Z,99151.88
2023-01-29T22:59:02.845Z,99144.81
2023-01-29T23:01:33.513Z,99147.91
2023-01-29T23:04:02.283Z,99131.13
2023-01-29T23:06:31.108Z,99125.56
2023-01-29T23:08:59.938Z,99127.53
2023-01-29T23:11:30.297Z,99131.13
2023-01-29T23:13:59.121Z,99115.53
2023-01-29T23:16:29.338Z,99107.47
2023-01-29T23:18:58.777Z,99097.94
2023-01-29T23:21:29.022Z,99097.59
2023-01-29T23:23:58.474Z,99106.50
2023-01-29T23:26:47.470Z,99105.84
2023-01-29T23:29:16.526Z,99095.63
2023-01-29T23:31:45.339Z,99092.97
2023-01-29T23:34:15.230Z,99093.47
2023-01-29T23:36:44.411Z,99083.28
2023-01-29T23:39:13.765Z,99080.16
2023-01-29T23:41:44.332Z,99083.13
2023-01-29T23:44:13.109Z,99066.31
2023-01-29T23:46:42.016Z,99054.81
2023-01-29T23:49:11.138Z,99045.94
2023-01-29T23:51:40.010Z,99033.41
2023-01-29T23:54:09.112Z,99016.28
2023-01-29T23:56:37.807Z,99017.47
2023-01-29T23:59:07.894Z,99022.91
